Lake Levels Lake Levels   »   United States   »   Texas
LAKES RIVERS MARINAS NEWS HOUSES EVENTS MAPS
1,681 Lakes:
Lake Store

Lake Levels in Texas, United States

Lake Name Current
Level
Full Pool +/-
Full Pool
Reading
Date - Time
Alan Henry (TX) 2,211.94 2,224.00 -12.06 8/19/2018  7:30 AM
Amistad (TX) 1,081.20 1,117.00 -35.80 8/19/2018  1:15 PM
Amon Carter (TX) 918.81 920.00 -1.19 8/19/2018  2:00 AM
Aquilla (TX) 535.93 537.50 -1.57 8/19/2018  8:30 AM
Arlington (TX) 545.05 550.00 -4.95 8/19/2018  12:15 PM
Arrowhead (TX) 922.50 926.00 -3.50 8/19/2018  1:00 PM
Athens (TX) 438.83 440.00 -1.17 8/19/2018  1:30 PM
Austin (TX) 492.32 492.80 -0.48 8/19/2018  1:00 PM
Bardwell (TX) 420.62 421.00 -0.38 8/19/2018  11:30 AM
Belton (TX) 589.14 594.00 -4.86 8/19/2018  9:00 AM
Benbrook (TX) 686.01 694.00 -7.99 8/19/2018  1:00 PM
Bob Sandlin (TX) 336.40 337.50 -1.10 8/19/2018  9:53 AM
Bonham (TX) 563.22 565.00 -1.78 8/19/2018  1:00 PM
Brady Creek (TX) 1,733.73 1,743.00 -9.27 8/19/2018  1:45 PM
Bridgeport (TX) 829.95 836.00 -6.05 8/19/2018  12:00 PM
Brownwood (TX) 1,417.54 1,425.00 -7.46 8/19/2018  1:30 PM
Buchanan (TX) 1,011.00 1,020.50 -9.50 8/19/2018  10:05 AM
Caddo (LA TX) 168.40 168.50 -0.10 8/19/2018  7:00 AM
Canyon (TX) 902.41 909.00 -6.59 8/19/2018  1:15 PM
Cedar Creek (TX) 320.33 322.00 -1.67 8/19/2018  1:45 PM
Champion Creek (TX) 2,065.42 2,083.00 -17.58 8/19/2018  10:03 AM
Cherokee (TX) 277.89 280.00 -2.11 8/19/2018  10:45 AM
Choke Canyon (TX) 192.32 220.50 -28.18 8/19/2018  7:30 AM
Cisco (TX) 1,515.24 1,520.00 -4.76 8/19/2018  6:30 PM
Coleman (TX) 1,712.76 1,718.00 -5.24 8/19/2018  1:30 PM
Coleto Creek (TX) 94.45 98.28 -3.83 8/19/2018  1:00 PM
Colorado City (TX) 2,051.38 2,070.20 -18.82 8/19/2018  10:03 AM
Conroe (TX) 199.81 201.00 -1.19 8/19/2018  12:45 PM
Corpus Christi (TX) 89.65 94.00 -4.35 8/19/2018  9:13 AM
E. V. Spence (TX) 1,845.94 1,898.00 -52.06 8/19/2018  1:00 PM
Eagle Mountain (TX) 646.49 649.00 -2.51 8/19/2018  1:00 PM
Falcon (TX) 262.58 301.20 -38.62 8/19/2018  1:15 PM
Fork (TX) 400.97 403.00 -2.03 8/19/2018  11:30 AM
Georgetown (TX) 775.92 791.00 -15.08 8/19/2018  1:00 PM
Graham (TX) 1,071.52 1,075.00 -3.48 8/19/2018  1:00 PM
Granbury (TX) 691.35 693.00 -1.65 8/19/2018  1:30 PM
Granger (TX) 502.94 504.00 -1.06 8/19/2018  5:00 AM
Grapevine (TX) 532.17 535.00 -2.83 8/19/2018  1:45 PM
Hords Creek (TX) 1,890.01 1,900.00 -9.99 8/19/2018  3:30 AM
Houston (TX) 42.44 41.70 0.74 8/19/2018  1:30 PM
Hubbard Creek (TX) 1,177.57 1,183.00 -5.43 8/19/2018  12:15 PM
Hubert M Moss (TX) 713.49 715.00 -1.51 8/19/2018  1:15 PM
Inks (TX) 887.00 886.90 0.10 8/19/2018  1:00 PM
Jacksonville (TX) 420.65 422.00 -1.35 8/19/2018  12:00 AM
JB Thomas (TX) 2,235.23 2,258.00 -22.77 8/19/2018  1:45 PM
Jim Chapman (TX) 436.66 440.00 -3.34 8/19/2018  9:53 AM
Joe Pool (TX) 520.24 522.00 -1.76 8/19/2018  1:00 PM
Kemp (TX) 1,138.28 1,144.00 -5.72 8/19/2018  12:15 PM
Kickapoo (TX) 1,040.73 1,045.00 -4.27 8/19/2018  1:00 PM
Lake O' the Pines (TX) 227.21 228.50 -1.29 8/19/2018  9:53 AM
Lavon (TX) 488.29 492.00 -3.71 8/19/2018  12:00 PM
Leon (TX) 1,369.54 8/19/2018  7:45 AM
Lewisville (TX) 519.32 522.00 -2.68 8/19/2018  2:30 AM
Limestone (TX) 359.23 363.00 -3.77 8/19/2018  11:45 AM
Livingston (TX) 130.80 131.00 -0.20 8/19/2018  12:00 AM
Lyndon B. Johnson (TX) 824.63 825.00 -0.37 8/19/2018  10:05 AM
MacKenzie (TX) 3,022.91 3,100.00 -77.09 8/19/2018  12:30 PM
Marble Falls (TX) 736.51 737.00 -0.49 8/19/2018  10:05 AM
Martin Creek (TX) 303.32 306.00 -2.68 8/19/2018  1:30 PM
Medina (TX) 1,036.12 1,062.00 -25.88 8/19/2018  1:00 PM
Meredith (TX) 2,886.46 2,941.00 -54.54 8/19/2018  7:30 AM
Mexia (TX) 447.68 448.30 -0.62 8/19/2018  11:15 AM
Millers Creek (TX) 1,330.11 1,334.00 -3.89 8/19/2018  8:00 AM
Mineral Wells (TX) 862.15 863.00 -0.85 8/19/2018  6:30 PM
Moss Creek (TX) 2,325.10 2,337.00 -11.90 8/19/2018  1:30 PM
Murvaul (TX) 263.75 265.50 -1.75 8/19/2018  9:53 AM
Nacogdoches (TX) 276.27 279.00 -2.73 8/19/2018  9:53 AM
Natural Dam Salt (TX) 2,447.27 2,457.00 -9.73 8/19/2018  12:00 AM
Navarro Mills (TX) 423.32 424.50 -1.18 8/19/2018  9:00 AM
Nocona (TX) 825.85 827.00 -1.15 8/19/2018  12:00 PM
O. C. Fisher (TX) 1,866.90 1,908.00 -41.10 8/19/2018  1:00 PM
O.H. Ivie (TX) 1,507.72 1,551.50 -43.78 8/19/2018  1:15 PM
Oak Creek (TX) 1,987.07 2,000.00 -12.93 8/19/2018  12:00 AM
Palestine (TX) 343.21 345.00 -1.79 8/19/2018  9:53 AM
Palo Pinto (TX) 862.68 867.00 -4.32 8/19/2018  1:15 PM
Pat Cleburne (TX) 731.27 733.60 -2.33 8/19/2018  9:00 AM
Pat Mayse (TX) 449.59 451.00 -1.41 8/19/2018  9:53 AM
Phantom Hill (TX) 1,631.48 1,635.90 -4.42 8/19/2018  1:30 PM
Possum Kingdom (TX) 995.23 1,000.00 -4.77 8/19/2018  10:20 AM
Proctor (TX) 1,155.35 1,162.00 -6.65 8/19/2018  1:30 PM
Ray Hubbard (TX) 432.24 435.50 -3.26 8/19/2018  12:30 PM
Ray Roberts (TX) 631.18 632.50 -1.32 8/19/2018  11:15 AM
Red Bluff (TX) 2,817.01 2,827.13 -10.12 8/19/2018  10:15 AM
Richland Chambers (TX) 313.40 315.00 -1.60 8/19/2018  12:00 AM
Sam Rayburn (TX) 161.77 164.40 -2.63 8/19/2018  1:00 PM
Somerville (TX) 235.91 238.00 -2.09 8/19/2018  12:00 PM
Squaw Creek (TX) 775.36 775.00 0.36 8/19/2018  11:00 AM
Stamford (TX) 1,413.31 1,417.00 -3.69 8/19/2018  12:30 PM
Steinhagen Reservoir (TX) 82.31 82.40 -0.09 8/19/2018  12:00 PM
Stillhouse Hollow (TX) 614.56 622.00 -7.44 8/19/2018  12:00 PM
Tawakoni (TX) 435.49 437.50 -2.01 8/19/2018  11:30 AM
Texana (TX) 42.44 44.00 -1.56 8/19/2018  1:00 PM
Texoma (TX) 617.04 617.00 0.04 8/19/2018  1:00 PM
Toledo Bend (TX LA) 168.41 172.00 -3.59 8/19/2018  1:45 PM
Travis (TX) 655.50 681.00 -25.50 8/19/2018  1:00 PM
Twin Buttes (TX) 1,892.65 1,940.00 -47.35 8/19/2018  12:00 AM
Tyler (TX) 373.57 375.50 -1.93 8/19/2018  9:53 AM
Waco (TX) 458.41 462.00 -3.59 8/19/2018  10:15 AM
Waxahachie (TX) 529.25 8/19/2018  12:00 AM
White River (TX) 2,348.08 8/19/2018  1:15 PM
Whitney (TX) 527.40 533.00 -5.60 8/19/2018  12:15 AM
Worth (TX) 592.27 594.00 -1.73 8/19/2018  1:00 PM
Wright Patman (TX) 226.03 220.60 5.43 8/19/2018  9:53 AM


CURRENT DAILY STREAMFLOW CONDITIONS
High
90th percentile
75th - 89th percentile
25th - 74th percentile
10th - 24th percentile
10th percentile
Low
Not ranked

The colored dots on this map depict streamflow conditions as a percentile, which is computed from the period of record for the current day of the year. Only stations with at least 30 years of record are used. The gray circles indicate other stations that were not ranked in percentiles either because they have fewer than 30 years of record or because they report parameters other than streamflow. Some stations, for example, measure stage only.
U.S. Daily Streamflow Conditions



U.S. Drought Monitor